sensor_id;sensor_type;location;lat;lon;timestamp;P1;durP1;ratioP1;P2;durP2;ratioP2
78027;SDS011;67235;45.638;11.714;2023-02-28T00:01:32;11.95;;;5.03;;
78027;SDS011;67235;45.638;11.714;2023-02-28T00:03:58;11.57;;;5.13;;
78027;SDS011;67235;45.638;11.714;2023-02-28T00:06:25;10.75;;;5.40;;
78027;SDS011;67235;45.638;11.714;2023-02-28T00:08:51;10.88;;;5.40;;
78027;SDS011;67235;45.638;11.714;2023-02-28T00:11:17;10.57;;;5.17;;
78027;SDS011;67235;45.638;11.714;2023-02-28T00:13:44;10.52;;;5.32;;
78027;SDS011;67235;45.638;11.714;2023-02-28T00:16:20;11.30;;;5.00;;
78027;SDS011;67235;45.638;11.714;2023-02-28T00:18:47;9.95;;;5.18;;
78027;SDS011;67235;45.638;11.714;2023-02-28T00:21:13;10.67;;;5.50;;
78027;SDS011;67235;45.638;11.714;2023-02-28T00:23:40;12.88;;;5.50;;
78027;SDS011;67235;45.638;11.714;2023-02-28T00:26:06;11.02;;;5.60;;
78027;SDS011;67235;45.638;11.714;2023-02-28T00:28:32;14.67;;;5.80;;
78027;SDS011;67235;45.638;11.714;2023-02-28T00:30:58;12.07;;;5.68;;
78027;SDS011;67235;45.638;11.714;2023-02-28T00:33:25;12.45;;;5.70;;
78027;SDS011;67235;45.638;11.714;2023-02-28T00:35:51;13.57;;;5.90;;
78027;SDS011;67235;45.638;11.714;2023-02-28T00:38:17;11.43;;;5.50;;
78027;SDS011;67235;45.638;11.714;2023-02-28T00:40:43;10.77;;;4.97;;
78027;SDS011;67235;45.638;11.714;2023-02-28T00:43:08;11.00;;;5.38;;
78027;SDS011;67235;45.638;11.714;2023-02-28T00:45:34;11.10;;;5.10;;
78027;SDS011;67235;45.638;11.714;2023-02-28T00:48:00;12.10;;;5.25;;
78027;SDS011;67235;45.638;11.714;2023-02-28T00:50:26;11.20;;;5.20;;
78027;SDS011;67235;45.638;11.714;2023-02-28T00:52:52;9.82;;;4.68;;
78027;SDS011;67235;45.638;11.714;2023-02-28T00:55:18;9.68;;;5.32;;
78027;SDS011;67235;45.638;11.714;2023-02-28T00:57:43;10.43;;;5.28;;
78027;SDS011;67235;45.638;11.714;2023-02-28T01:00:09;11.27;;;5.05;;
78027;SDS011;67235;45.638;11.714;2023-02-28T01:02:36;11.03;;;5.23;;
78027;SDS011;67235;45.638;11.714;2023-02-28T01:05:02;11.10;;;5.30;;
78027;SDS011;67235;45.638;11.714;2023-02-28T01:07:28;11.45;;;5.68;;
78027;SDS011;67235;45.638;11.714;2023-02-28T01:09:54;10.10;;;5.20;;
78027;SDS011;67235;45.638;11.714;2023-02-28T01:12:19;10.53;;;5.03;;
78027;SDS011;67235;45.638;11.714;2023-02-28T01:14:45;9.98;;;4.75;;
78027;SDS011;67235;45.638;11.714;2023-02-28T01:17:11;11.57;;;5.22;;
78027;SDS011;67235;45.638;11.714;2023-02-28T01:19:37;11.63;;;5.32;;
78027;SDS011;67235;45.638;11.714;2023-02-28T01:22:04;12.98;;;5.93;;
78027;SDS011;67235;45.638;11.714;2023-02-28T01:24:31;12.57;;;5.87;;
78027;SDS011;67235;45.638;11.714;2023-02-28T01:26:57;10.88;;;5.30;;
78027;SDS011;67235;45.638;11.714;2023-02-28T01:29:24;12.43;;;5.57;;
78027;SDS011;67235;45.638;11.714;2023-02-28T01:31:50;10.95;;;5.38;;
78027;SDS011;67235;45.638;11.714;2023-02-28T01:34:16;11.90;;;5.80;;
78027;SDS011;67235;45.638;11.714;2023-02-28T01:36:44;13.73;;;5.63;;
78027;SDS011;67235;45.638;11.714;2023-02-28T01:39:10;11.18;;;5.55;;
78027;SDS011;67235;45.638;11.714;2023-02-28T01:41:35;10.05;;;5.45;;
78027;SDS011;67235;45.638;11.714;2023-02-28T01:44:05;10.52;;;5.18;;
78027;SDS011;67235;45.638;11.714;2023-02-28T01:46:52;11.18;;;4.95;;
78027;SDS011;67235;45.638;11.714;2023-02-28T01:49:17;12.43;;;4.87;;
78027;SDS011;67235;45.638;11.714;2023-02-28T01:51:54;11.63;;;5.63;;
78027;SDS011;67235;45.638;11.714;2023-02-28T01:54:29;11.60;;;5.55;;
78027;SDS011;67235;45.638;11.714;2023-02-28T01:56:58;9.93;;;5.03;;
78027;SDS011;67235;45.638;11.714;2023-02-28T01:59:37;10.40;;;5.00;;
78027;SDS011;67235;45.638;11.714;2023-02-28T02:02:13;10.47;;;4.87;;
78027;SDS011;67235;45.638;11.714;2023-02-28T02:04:46;11.02;;;5.18;;
78027;SDS011;67235;45.638;11.714;2023-02-28T02:07:26;10.05;;;4.85;;
78027;SDS011;67235;45.638;11.714;2023-02-28T02:13:18;9.98;;;5.05;;
78027;SDS011;67235;45.638;11.714;2023-02-28T02:15:40;11.33;;;5.07;;
78027;SDS011;67235;45.638;11.714;2023-02-28T02:18:19;11.70;;;5.25;;
78027;SDS011;67235;45.638;11.714;2023-02-28T02:28:55;9.37;;;4.97;;
78027;SDS011;67235;45.638;11.714;2023-02-28T02:31:38;10.95;;;5.35;;
78027;SDS011;67235;45.638;11.714;2023-02-28T02:37:13;10.10;;;5.10;;
78027;SDS011;67235;45.638;11.714;2023-02-28T02:40:04;11.10;;;5.20;;
78027;SDS011;67235;45.638;11.714;2023-02-28T02:45:10;12.45;;;5.97;;
78027;SDS011;67235;45.638;11.714;2023-02-28T02:47:41;11.77;;;5.80;;
78027;SDS011;67235;45.638;11.714;2023-02-28T02:50:11;11.52;;;5.60;;
78027;SDS011;67235;45.638;11.714;2023-02-28T02:52:45;11.50;;;4.80;;
78027;SDS011;67235;45.638;11.714;2023-02-28T02:55:16;11.23;;;4.88;;
78027;SDS011;67235;45.638;11.714;2023-02-28T02:57:45;8.93;;;4.63;;
78027;SDS011;67235;45.638;11.714;2023-02-28T03:00:16;10.50;;;4.82;;
78027;SDS011;67235;45.638;11.714;2023-02-28T03:02:46;12.25;;;5.40;;
78027;SDS011;67235;45.638;11.714;2023-02-28T03:05:18;12.20;;;5.20;;
78027;SDS011;67235;45.638;11.714;2023-02-28T03:07:50;11.32;;;4.82;;
78027;SDS011;67235;45.638;11.714;2023-02-28T03:13:16;10.27;;;5.23;;
78027;SDS011;67235;45.638;11.714;2023-02-28T03:21:48;10.57;;;4.70;;
78027;SDS011;67235;45.638;11.714;2023-02-28T03:30:00;8.77;;;4.40;;
78027;SDS011;67235;45.638;11.714;2023-02-28T03:32:42;10.35;;;4.95;;
78027;SDS011;67235;45.638;11.714;2023-02-28T03:35:12;10.20;;;4.80;;
78027;SDS011;67235;45.638;11.714;2023-02-28T03:37:46;9.15;;;4.55;;
78027;SDS011;67235;45.638;11.714;2023-02-28T03:40:19;9.33;;;4.83;;
78027;SDS011;67235;45.638;11.714;2023-02-28T03:42:48;10.77;;;4.93;;
78027;SDS011;67235;45.638;11.714;2023-02-28T03:45:23;10.10;;;4.70;;
78027;SDS011;67235;45.638;11.714;2023-02-28T03:48:01;10.63;;;4.82;;
78027;SDS011;67235;45.638;11.714;2023-02-28T03:53:14;8.73;;;4.47;;
78027;SDS011;67235;45.638;11.714;2023-02-28T03:55:47;9.05;;;3.78;;
78027;SDS011;67235;45.638;11.714;2023-02-28T03:58:27;11.75;;;5.15;;
78027;SDS011;67235;45.638;11.714;2023-02-28T04:01:03;10.23;;;4.50;;
78027;SDS011;67235;45.638;11.714;2023-02-28T04:03:43;9.88;;;4.88;;
78027;SDS011;67235;45.638;11.714;2023-02-28T04:06:13;9.03;;;4.20;;
78027;SDS011;67235;45.638;11.714;2023-02-28T04:08:42;9.27;;;4.60;;
78027;SDS011;67235;45.638;11.714;2023-02-28T04:11:42;10.18;;;4.60;;
78027;SDS011;67235;45.638;11.714;2023-02-28T04:14:05;9.93;;;4.75;;
78027;SDS011;67235;45.638;11.714;2023-02-28T04:16:33;9.67;;;4.60;;
78027;SDS011;67235;45.638;11.714;2023-02-28T04:19:00;9.63;;;4.43;;
78027;SDS011;67235;45.638;11.714;2023-02-28T04:21:34;11.02;;;5.03;;
78027;SDS011;67235;45.638;11.714;2023-02-28T04:24:04;8.35;;;4.35;;
78027;SDS011;67235;45.638;11.714;2023-02-28T04:26:31;10.57;;;4.85;;
78027;SDS011;67235;45.638;11.714;2023-02-28T04:29:02;9.60;;;4.60;;
78027;SDS011;67235;45.638;11.714;2023-02-28T04:31:29;11.15;;;4.70;;
78027;SDS011;67235;45.638;11.714;2023-02-28T04:33:55;11.43;;;5.20;;
78027;SDS011;67235;45.638;11.714;2023-02-28T04:36:22;9.82;;;4.78;;
78027;SDS011;67235;45.638;11.714;2023-02-28T04:38:48;11.43;;;5.03;;
78027;SDS011;67235;45.638;11.714;2023-02-28T04:41:15;10.77;;;4.77;;
78027;SDS011;67235;45.638;11.714;2023-02-28T04:43:41;9.95;;;4.50;;
78027;SDS011;67235;45.638;11.714;2023-02-28T04:46:07;12.30;;;5.45;;
78027;SDS011;67235;45.638;11.714;2023-02-28T04:48:35;10.60;;;5.00;;
78027;SDS011;67235;45.638;11.714;2023-02-28T04:51:03;10.43;;;4.47;;
78027;SDS011;67235;45.638;11.714;2023-02-28T04:53:31;12.10;;;5.10;;
78027;SDS011;67235;45.638;11.714;2023-02-28T04:55:57;10.32;;;4.78;;
78027;SDS011;67235;45.638;11.714;2023-02-28T04:58:23;9.70;;;4.78;;
78027;SDS011;67235;45.638;11.714;2023-02-28T05:00:51;11.90;;;4.97;;
78027;SDS011;67235;45.638;11.714;2023-02-28T05:03:17;10.55;;;5.32;;
78027;SDS011;67235;45.638;11.714;2023-02-28T05:05:43;10.63;;;5.07;;
78027;SDS011;67235;45.638;11.714;2023-02-28T05:08:09;11.30;;;5.25;;
78027;SDS011;67235;45.638;11.714;2023-02-28T05:10:35;11.90;;;5.13;;
78027;SDS011;67235;45.638;11.714;2023-02-28T05:13:01;12.57;;;5.15;;
78027;SDS011;67235;45.638;11.714;2023-02-28T05:15:27;10.47;;;4.67;;
78027;SDS011;67235;45.638;11.714;2023-02-28T05:17:53;10.98;;;4.95;;
78027;SDS011;67235;45.638;11.714;2023-02-28T05:20:19;10.97;;;4.90;;
78027;SDS011;67235;45.638;11.714;2023-02-28T05:22:45;9.57;;;4.70;;
78027;SDS011;67235;45.638;11.714;2023-02-28T05:25:12;9.98;;;4.68;;
78027;SDS011;67235;45.638;11.714;2023-02-28T05:27:43;11.20;;;4.78;;
78027;SDS011;67235;45.638;11.714;2023-02-28T05:30:09;10.07;;;4.60;;
78027;SDS011;67235;45.638;11.714;2023-02-28T05:32:36;11.10;;;4.63;;
78027;SDS011;67235;45.638;11.714;2023-02-28T05:35:03;12.05;;;5.00;;
78027;SDS011;67235;45.638;11.714;2023-02-28T05:37:29;10.73;;;5.05;;
78027;SDS011;67235;45.638;11.714;2023-02-28T05:39:55;12.10;;;5.07;;
78027;SDS011;67235;45.638;11.714;2023-02-28T05:42:21;10.03;;;4.90;;
78027;SDS011;67235;45.638;11.714;2023-02-28T05:44:47;11.57;;;5.18;;
78027;SDS011;67235;45.638;11.714;2023-02-28T05:47:13;11.23;;;4.93;;
78027;SDS011;67235;45.638;11.714;2023-02-28T05:49:40;10.90;;;4.93;;
78027;SDS011;67235;45.638;11.714;2023-02-28T05:52:07;11.20;;;4.88;;
78027;SDS011;67235;45.638;11.714;2023-02-28T05:54:33;15.18;;;4.85;;
78027;SDS011;67235;45.638;11.714;2023-02-28T05:56:58;10.38;;;5.45;;
78027;SDS011;67235;45.638;11.714;2023-02-28T05:59:24;11.73;;;5.37;;
78027;SDS011;67235;45.638;11.714;2023-02-28T06:01:50;10.95;;;4.65;;
78027;SDS011;67235;45.638;11.714;2023-02-28T06:04:19;10.35;;;5.32;;
78027;SDS011;67235;45.638;11.714;2023-02-28T06:06:46;10.90;;;5.23;;
78027;SDS011;67235;45.638;11.714;2023-02-28T06:09:14;10.63;;;5.43;;
78027;SDS011;67235;45.638;11.714;2023-02-28T06:11:40;11.25;;;5.38;;
78027;SDS011;67235;45.638;11.714;2023-02-28T06:14:06;8.95;;;4.65;;
78027;SDS011;67235;45.638;11.714;2023-02-28T06:16:33;13.50;;;6.10;;
78027;SDS011;67235;45.638;11.714;2023-02-28T06:19:01;11.03;;;5.70;;
78027;SDS011;67235;45.638;11.714;2023-02-28T06:21:28;14.23;;;6.53;;
78027;SDS011;67235;45.638;11.714;2023-02-28T06:23:55;13.32;;;6.20;;
78027;SDS011;67235;45.638;11.714;2023-02-28T06:26:22;11.63;;;5.70;;
78027;SDS011;67235;45.638;11.714;2023-02-28T06:28:48;11.80;;;5.53;;
78027;SDS011;67235;45.638;11.714;2023-02-28T06:31:15;13.60;;;5.87;;
78027;SDS011;67235;45.638;11.714;2023-02-28T06:33:42;11.68;;;5.38;;
78027;SDS011;67235;45.638;11.714;2023-02-28T06:36:10;11.68;;;5.40;;
78027;SDS011;67235;45.638;11.714;2023-02-28T06:38:38;12.13;;;5.43;;
78027;SDS011;67235;45.638;11.714;2023-02-28T06:41:04;11.77;;;4.90;;
78027;SDS011;67235;45.638;11.714;2023-02-28T06:43:32;10.35;;;5.28;;
78027;SDS011;67235;45.638;11.714;2023-02-28T06:46:05;12.82;;;5.60;;
78027;SDS011;67235;45.638;11.714;2023-02-28T06:48:32;11.05;;;5.60;;
78027;SDS011;67235;45.638;11.714;2023-02-28T06:51:04;12.23;;;5.60;;
78027;SDS011;67235;45.638;11.714;2023-02-28T06:53:36;11.63;;;5.55;;
78027;SDS011;67235;45.638;11.714;2023-02-28T06:56:08;10.90;;;5.43;;
78027;SDS011;67235;45.638;11.714;2023-02-28T06:58:37;13.27;;;6.53;;
78027;SDS011;67235;45.638;11.714;2023-02-28T07:01:04;10.32;;;5.65;;
78027;SDS011;67235;45.638;11.714;2023-02-28T07:03:31;11.10;;;6.40;;
78027;SDS011;67235;45.638;11.714;2023-02-28T07:05:57;11.90;;;6.20;;
78027;SDS011;67235;45.638;11.714;2023-02-28T07:08:23;13.63;;;6.43;;
78027;SDS011;67235;45.638;11.714;2023-02-28T07:10:56;12.38;;;6.50;;
78027;SDS011;67235;45.638;11.714;2023-02-28T07:13:23;12.20;;;6.30;;
78027;SDS011;67235;45.638;11.714;2023-02-28T07:15:59;14.25;;;5.70;;
78027;SDS011;67235;45.638;11.714;2023-02-28T07:18:26;10.25;;;5.82;;
78027;SDS011;67235;45.638;11.714;2023-02-28T07:20:52;9.90;;;5.13;;
78027;SDS011;67235;45.638;11.714;2023-02-28T07:23:18;9.55;;;5.57;;
78027;SDS011;67235;45.638;11.714;2023-02-28T07:25:45;10.40;;;4.80;;
78027;SDS011;67235;45.638;11.714;2023-02-28T07:28:11;11.90;;;5.80;;
78027;SDS011;67235;45.638;11.714;2023-02-28T07:30:38;12.40;;;6.05;;
78027;SDS011;67235;45.638;11.714;2023-02-28T07:33:04;9.20;;;5.18;;
78027;SDS011;67235;45.638;11.714;2023-02-28T07:35:30;9.90;;;5.30;;
78027;SDS011;67235;45.638;11.714;2023-02-28T07:38:00;9.45;;;4.93;;
78027;SDS011;67235;45.638;11.714;2023-02-28T07:40:26;10.18;;;5.15;;
78027;SDS011;67235;45.638;11.714;2023-02-28T07:42:52;10.55;;;5.65;;
78027;SDS011;67235;45.638;11.714;2023-02-28T07:45:20;9.20;;;5.27;;
78027;SDS011;67235;45.638;11.714;2023-02-28T07:47:46;10.02;;;5.45;;
78027;SDS011;67235;45.638;11.714;2023-02-28T07:50:13;11.20;;;5.10;;
78027;SDS011;67235;45.638;11.714;2023-02-28T07:52:40;9.05;;;4.95;;
78027;SDS011;67235;45.638;11.714;2023-02-28T07:55:07;10.18;;;6.20;;
78027;SDS011;67235;45.638;11.714;2023-02-28T07:57:34;9.18;;;5.22;;
78027;SDS011;67235;45.638;11.714;2023-02-28T08:00:02;10.07;;;5.50;;
78027;SDS011;67235;45.638;11.714;2023-02-28T08:02:29;9.70;;;5.15;;
78027;SDS011;67235;45.638;11.714;2023-02-28T08:04:58;10.10;;;4.77;;
78027;SDS011;67235;45.638;11.714;2023-02-28T08:07:25;9.90;;;5.38;;
78027;SDS011;67235;45.638;11.714;2023-02-28T08:09:53;9.48;;;5.10;;
78027;SDS011;67235;45.638;11.714;2023-02-28T08:12:19;10.50;;;5.43;;
78027;SDS011;67235;45.638;11.714;2023-02-28T08:14:45;9.43;;;4.93;;
78027;SDS011;67235;45.638;11.714;2023-02-28T08:17:11;9.50;;;5.45;;
78027;SDS011;67235;45.638;11.714;2023-02-28T08:19:37;10.90;;;5.78;;
78027;SDS011;67235;45.638;11.714;2023-02-28T08:22:03;10.45;;;5.32;;
78027;SDS011;67235;45.638;11.714;2023-02-28T08:24:30;12.00;;;5.80;;
78027;SDS011;67235;45.638;11.714;2023-02-28T08:26:56;9.85;;;5.60;;
78027;SDS011;67235;45.638;11.714;2023-02-28T08:29:22;10.32;;;5.57;;
78027;SDS011;67235;45.638;11.714;2023-02-28T08:31:48;10.77;;;5.72;;
78027;SDS011;67235;45.638;11.714;2023-02-28T08:34:15;10.07;;;5.50;;
78027;SDS011;67235;45.638;11.714;2023-02-28T08:39:30;10.02;;;5.20;;
78027;SDS011;67235;45.638;11.714;2023-02-28T08:42:00;10.20;;;5.80;;
78027;SDS011;67235;45.638;11.714;2023-02-28T08:44:26;9.85;;;5.50;;
78027;SDS011;67235;45.638;11.714;2023-02-28T08:46:52;10.70;;;5.70;;
78027;SDS011;67235;45.638;11.714;2023-02-28T08:49:18;9.52;;;5.53;;
78027;SDS011;67235;45.638;11.714;2023-02-28T08:51:44;12.20;;;5.82;;
78027;SDS011;67235;45.638;11.714;2023-02-28T08:54:10;13.30;;;7.93;;
78027;SDS011;67235;45.638;11.714;2023-02-28T08:56:37;9.65;;;5.45;;
78027;SDS011;67235;45.638;11.714;2023-02-28T08:59:04;10.43;;;5.43;;
78027;SDS011;67235;45.638;11.714;2023-02-28T09:01:30;10.80;;;6.00;;
78027;SDS011;67235;45.638;11.714;2023-02-28T09:03:57;10.65;;;5.70;;
78027;SDS011;67235;45.638;11.714;2023-02-28T09:06:26;10.25;;;5.40;;
78027;SDS011;67235;45.638;11.714;2023-02-28T09:08:57;10.30;;;5.75;;
78027;SDS011;67235;45.638;11.714;2023-02-28T09:11:26;10.57;;;5.90;;
78027;SDS011;67235;45.638;11.714;2023-02-28T09:13:55;10.00;;;5.53;;
78027;SDS011;67235;45.638;11.714;2023-02-28T09:16:26;9.95;;;5.65;;
78027;SDS011;67235;45.638;11.714;2023-02-28T09:18:52;9.40;;;4.88;;
78027;SDS011;67235;45.638;11.714;2023-02-28T09:21:18;8.88;;;4.85;;
78027;SDS011;67235;45.638;11.714;2023-02-28T09:23:46;9.60;;;5.40;;
78027;SDS011;67235;45.638;11.714;2023-02-28T09:26:18;10.98;;;4.68;;
78027;SDS011;67235;45.638;11.714;2023-02-28T09:28:49;9.93;;;5.35;;
78027;SDS011;67235;45.638;11.714;2023-02-28T09:31:17;10.35;;;4.82;;
78027;SDS011;67235;45.638;11.714;2023-02-28T09:33:49;8.85;;;4.93;;
78027;SDS011;67235;45.638;11.714;2023-02-28T09:36:20;9.93;;;4.77;;
78027;SDS011;67235;45.638;11.714;2023-02-28T09:38:47;9.82;;;5.30;;
78027;SDS011;67235;45.638;11.714;2023-02-28T09:41:15;10.48;;;5.10;;
78027;SDS011;67235;45.638;11.714;2023-02-28T09:43:44;9.05;;;4.82;;
78027;SDS011;67235;45.638;11.714;2023-02-28T09:49:19;8.93;;;4.70;;
78027;SDS011;67235;45.638;11.714;2023-02-28T09:51:58;8.98;;;4.38;;
78027;SDS011;67235;45.638;11.714;2023-02-28T09:54:28;9.77;;;4.40;;
78027;SDS011;67235;45.638;11.714;2023-02-28T10:05:11;9.38;;;5.25;;
78027;SDS011;67235;45.638;11.714;2023-02-28T10:07:50;10.60;;;5.10;;
78027;SDS011;67235;45.638;11.714;2023-02-28T10:15:47;9.67;;;5.00;;
78027;SDS011;67235;45.638;11.714;2023-02-28T10:18:21;10.77;;;5.28;;
78027;SDS011;67235;45.638;11.714;2023-02-28T10:20:54;10.40;;;5.30;;
78027;SDS011;67235;45.638;11.714;2023-02-28T10:23:28;11.25;;;5.38;;
78027;SDS011;67235;45.638;11.714;2023-02-28T10:26:01;8.80;;;4.30;;
78027;SDS011;67235;45.638;11.714;2023-02-28T10:28:37;10.67;;;5.00;;
78027;SDS011;67235;45.638;11.714;2023-02-28T10:31:04;8.90;;;4.70;;
78027;SDS011;67235;45.638;11.714;2023-02-28T10:33:36;8.80;;;4.82;;
78027;SDS011;67235;45.638;11.714;2023-02-28T10:36:03;9.93;;;4.30;;
78027;SDS011;67235;45.638;11.714;2023-02-28T10:38:37;10.02;;;5.10;;
78027;SDS011;67235;45.638;11.714;2023-02-28T10:41:09;9.10;;;4.20;;
78027;SDS011;67235;45.638;11.714;2023-02-28T10:43:36;9.20;;;5.10;;
78027;SDS011;67235;45.638;11.714;2023-02-28T10:46:09;11.73;;;5.60;;
78027;SDS011;67235;45.638;11.714;2023-02-28T10:51:36;11.32;;;6.22;;
78027;SDS011;67235;45.638;11.714;2023-02-28T10:54:04;9.60;;;5.30;;
78027;SDS011;67235;45.638;11.714;2023-02-28T10:56:30;11.50;;;5.53;;
78027;SDS011;67235;45.638;11.714;2023-02-28T10:59:22;11.23;;;5.43;;
78027;SDS011;67235;45.638;11.714;2023-02-28T11:01:55;11.57;;;4.70;;
78027;SDS011;67235;45.638;11.714;2023-02-28T11:09:35;8.95;;;4.72;;
78027;SDS011;67235;45.638;11.714;2023-02-28T11:12:18;9.50;;;4.72;;
78027;SDS011;67235;45.638;11.714;2023-02-28T11:14:50;14.88;;;4.82;;
78027;SDS011;67235;45.638;11.714;2023-02-28T11:17:19;9.70;;;4.90;;
78027;SDS011;67235;45.638;11.714;2023-02-28T11:19:48;10.97;;;4.93;;
78027;SDS011;67235;45.638;11.714;2023-02-28T11:22:21;8.68;;;4.57;;
78027;SDS011;67235;45.638;11.714;2023-02-28T11:24:53;10.07;;;5.43;;
78027;SDS011;67235;45.638;11.714;2023-02-28T11:29:59;11.75;;;5.22;;
78027;SDS011;67235;45.638;11.714;2023-02-28T11:32:26;11.77;;;5.37;;
78027;SDS011;67235;45.638;11.714;2023-02-28T11:37:36;9.70;;;5.07;;
78027;SDS011;67235;45.638;11.714;2023-02-28T11:40:29;10.05;;;4.55;;
78027;SDS011;67235;45.638;11.714;2023-02-28T11:43:16;11.85;;;5.20;;
78027;SDS011;67235;45.638;11.714;2023-02-28T11:46:14;9.37;;;4.93;;
78027;SDS011;67235;45.638;11.714;2023-02-28T11:51:48;10.23;;;5.30;;
78027;SDS011;67235;45.638;11.714;2023-02-28T12:05:46;9.65;;;4.38;;
78027;SDS011;67235;45.638;11.714;2023-02-28T12:11:06;9.57;;;4.72;;
78027;SDS011;67235;45.638;11.714;2023-02-28T12:16:27;10.68;;;4.93;;
78027;SDS011;67235;45.638;11.714;2023-02-28T12:19:11;11.50;;;4.63;;
78027;SDS011;67235;45.638;11.714;2023-02-28T12:27:41;8.70;;;4.03;;
78027;SDS011;67235;45.638;11.714;2023-02-28T12:33:04;10.57;;;5.05;;
78027;SDS011;67235;45.638;11.714;2023-02-28T12:35:34;9.85;;;5.50;;
78027;SDS011;67235;45.638;11.714;2023-02-28T12:38:10;8.85;;;4.10;;
78027;SDS011;67235;45.638;11.714;2023-02-28T12:43:15;10.55;;;4.65;;
78027;SDS011;67235;45.638;11.714;2023-02-28T12:45:48;9.50;;;4.75;;
78027;SDS011;67235;45.638;11.714;2023-02-28T12:48:24;10.38;;;5.10;;
78027;SDS011;67235;45.638;11.714;2023-02-28T12:51:03;8.88;;;4.60;;
78027;SDS011;67235;45.638;11.714;2023-02-28T12:56:15;12.27;;;5.22;;
78027;SDS011;67235;45.638;11.714;2023-02-28T12:58:54;10.13;;;4.60;;
78027;SDS011;67235;45.638;11.714;2023-02-28T13:10:02;11.05;;;5.40;;
78027;SDS011;67235;45.638;11.714;2023-02-28T13:12:32;9.88;;;4.22;;
78027;SDS011;67235;45.638;11.714;2023-02-28T13:15:08;9.48;;;4.55;;
78027;SDS011;67235;45.638;11.714;2023-02-28T13:17:50;10.50;;;5.07;;
78027;SDS011;67235;45.638;11.714;2023-02-28T13:20:21;10.50;;;4.80;;
78027;SDS011;67235;45.638;11.714;2023-02-28T13:22:53;9.80;;;5.25;;
78027;SDS011;67235;45.638;11.714;2023-02-28T13:27:59;10.48;;;5.28;;
78027;SDS011;67235;45.638;11.714;2023-02-28T13:38:37;10.80;;;5.10;;
78027;SDS011;67235;45.638;11.714;2023-02-28T13:44:04;11.40;;;5.15;;
78027;SDS011;67235;45.638;11.714;2023-02-28T13:46:31;11.70;;;5.20;;
78027;SDS011;67235;45.638;11.714;2023-02-28T13:51:55;11.45;;;5.22;;
78027;SDS011;67235;45.638;11.714;2023-02-28T14:00:28;14.37;;;5.23;;
78027;SDS011;67235;45.638;11.714;2023-02-28T14:03:12;10.23;;;5.25;;
78027;SDS011;67235;45.638;11.714;2023-02-28T14:05:43;10.13;;;4.93;;
78027;SDS011;67235;45.638;11.714;2023-02-28T14:08:14;11.48;;;5.43;;
78027;SDS011;67235;45.638;11.714;2023-02-28T14:10:46;11.50;;;5.90;;
78027;SDS011;67235;45.638;11.714;2023-02-28T14:15:57;11.32;;;5.38;;
78027;SDS011;67235;45.638;11.714;2023-02-28T14:18:27;11.05;;;5.22;;
78027;SDS011;67235;45.638;11.714;2023-02-28T14:36:06;12.48;;;4.97;;
78027;SDS011;67235;45.638;11.714;2023-02-28T14:38:45;12.67;;;5.33;;
78027;SDS011;67235;45.638;11.714;2023-02-28T14:41:22;10.48;;;4.80;;
78027;SDS011;67235;45.638;11.714;2023-02-28T14:43:58;9.13;;;4.45;;
78027;SDS011;67235;45.638;11.714;2023-02-28T14:46:26;11.93;;;5.70;;
78027;SDS011;67235;45.638;11.714;2023-02-28T14:48:59;11.77;;;5.90;;
78027;SDS011;67235;45.638;11.714;2023-02-28T14:51:25;9.73;;;4.10;;
78027;SDS011;67235;45.638;11.714;2023-02-28T14:53:52;12.15;;;5.75;;
78027;SDS011;67235;45.638;11.714;2023-02-28T14:56:34;9.60;;;4.45;;
78027;SDS011;67235;45.638;11.714;2023-02-28T14:59:05;11.85;;;5.45;;
78027;SDS011;67235;45.638;11.714;2023-02-28T15:01:46;11.60;;;5.50;;
78027;SDS011;67235;45.638;11.714;2023-02-28T15:04:15;11.57;;;5.77;;
78027;SDS011;67235;45.638;11.714;2023-02-28T15:07:09;12.02;;;5.75;;
78027;SDS011;67235;45.638;11.714;2023-02-28T15:09:36;11.45;;;5.30;;
78027;SDS011;67235;45.638;11.714;2023-02-28T15:12:02;11.10;;;5.15;;
78027;SDS011;67235;45.638;11.714;2023-02-28T15:14:28;12.93;;;5.37;;
78027;SDS011;67235;45.638;11.714;2023-02-28T15:16:59;12.95;;;5.40;;
78027;SDS011;67235;45.638;11.714;2023-02-28T15:19:32;10.73;;;4.50;;
78027;SDS011;67235;45.638;11.714;2023-02-28T15:22:05;9.38;;;4.70;;
78027;SDS011;67235;45.638;11.714;2023-02-28T15:25:10;10.40;;;5.50;;
78027;SDS011;67235;45.638;11.714;2023-02-28T15:27:31;10.57;;;4.93;;
78027;SDS011;67235;45.638;11.714;2023-02-28T15:30:08;9.50;;;4.05;;
78027;SDS011;67235;45.638;11.714;2023-02-28T15:32:39;10.90;;;5.25;;
78027;SDS011;67235;45.638;11.714;2023-02-28T15:35:48;10.38;;;4.93;;
78027;SDS011;67235;45.638;11.714;2023-02-28T15:38:00;9.25;;;4.30;;
78027;SDS011;67235;45.638;11.714;2023-02-28T15:40:38;10.30;;;4.47;;
78027;SDS011;67235;45.638;11.714;2023-02-28T15:43:16;9.32;;;3.67;;
78027;SDS011;67235;45.638;11.714;2023-02-28T15:48:35;11.30;;;4.72;;
78027;SDS011;67235;45.638;11.714;2023-02-28T15:51:08;11.35;;;4.82;;
78027;SDS011;67235;45.638;11.714;2023-02-28T15:54:05;10.13;;;4.40;;
78027;SDS011;67235;45.638;11.714;2023-02-28T15:56:34;11.38;;;5.60;;
78027;SDS011;67235;45.638;11.714;2023-02-28T15:59:07;10.60;;;4.63;;
78027;SDS011;67235;45.638;11.714;2023-02-28T16:01:43;9.30;;;4.70;;
78027;SDS011;67235;45.638;11.714;2023-02-28T16:04:16;10.30;;;4.35;;
78027;SDS011;67235;45.638;11.714;2023-02-28T16:07:03;10.37;;;4.37;;
78027;SDS011;67235;45.638;11.714;2023-02-28T16:12:32;11.43;;;4.60;;
78027;SDS011;67235;45.638;11.714;2023-02-28T16:15:19;11.45;;;4.97;;
78027;SDS011;67235;45.638;11.714;2023-02-28T16:18:23;11.30;;;5.10;;
78027;SDS011;67235;45.638;11.714;2023-02-28T16:20:52;11.97;;;4.93;;
78027;SDS011;67235;45.638;11.714;2023-02-28T16:23:21;9.00;;;4.43;;
78027;SDS011;67235;45.638;11.714;2023-02-28T16:25:58;12.10;;;4.55;;
78027;SDS011;67235;45.638;11.714;2023-02-28T16:28:37;11.98;;;5.45;;
78027;SDS011;67235;45.638;11.714;2023-02-28T16:31:05;16.40;;;5.28;;
78027;SDS011;67235;45.638;11.714;2023-02-28T16:33:32;13.47;;;5.13;;
78027;SDS011;67235;45.638;11.714;2023-02-28T16:36:01;14.55;;;4.82;;
78027;SDS011;67235;45.638;11.714;2023-02-28T16:38:44;14.98;;;5.13;;
78027;SDS011;67235;45.638;11.714;2023-02-28T16:41:17;12.98;;;5.28;;
78027;SDS011;67235;45.638;11.714;2023-02-28T16:43:51;13.10;;;5.85;;
78027;SDS011;67235;45.638;11.714;2023-02-28T16:46:26;16.50;;;5.90;;
78027;SDS011;67235;45.638;11.714;2023-02-28T16:48:58;17.02;;;6.55;;
78027;SDS011;67235;45.638;11.714;2023-02-28T16:51:26;13.20;;;6.85;;
78027;SDS011;67235;45.638;11.714;2023-02-28T16:53:52;16.38;;;7.60;;
78027;SDS011;67235;45.638;11.714;2023-02-28T16:56:22;13.77;;;7.75;;
78027;SDS011;67235;45.638;11.714;2023-02-28T16:58:52;16.23;;;8.70;;
78027;SDS011;67235;45.638;11.714;2023-02-28T17:01:26;18.23;;;8.70;;
78027;SDS011;67235;45.638;11.714;2023-02-28T17:03:56;20.45;;;9.57;;
78027;SDS011;67235;45.638;11.714;2023-02-28T17:06:38;17.98;;;8.95;;
78027;SDS011;67235;45.638;11.714;2023-02-28T17:09:05;27.15;;;12.63;;
78027;SDS011;67235;45.638;11.714;2023-02-28T17:11:34;25.20;;;12.33;;
78027;SDS011;67235;45.638;11.714;2023-02-28T17:14:19;25.95;;;10.75;;
78027;SDS011;67235;45.638;11.714;2023-02-28T17:16:46;18.77;;;9.38;;
78027;SDS011;67235;45.638;11.714;2023-02-28T17:19:13;18.90;;;9.93;;